Time;durP1;ratioP1;P1;durP2;ratioP2;P2;SDS_P1;SDS_P2;PMS_P1;PMS_P2;Temp;Humidity;BMP_temperature;BMP_pressure;BME280_temperature;BME280_humidity;BME280_pressure;Samples;Min_cycle;Max_cycle;Signal;HPM_P1;HPM_P2
2023/03/02 00:02:39;;;;;;;;;;;;;;;3.59;90.91;102966.25;20780004;28;19925;-57
2023/03/02 00:13:01;;;;;;;;;;;;;;;3.55;90.16;102972.09;20793938;28;20312;-57
2023/03/02 00:23:23;;;;;;;;;;;;;;;3.47;90.99;102959.88;20770326;28;19978;-57
2023/03/02 00:33:44;;;;;;;;;;;;;;;3.51;91.50;102954.03;20775402;28;19933;-57
2023/03/02 00:44:05;;;;;;;;;;;;;;;3.44;91.50;102954.66;20782728;28;19925;-57
2023/03/02 00:54:27;;;;;;;;;;;;;;;3.46;91.77;102942.78;20762012;28;19957;-57
2023/03/02 01:04:48;;;;;;;;;;;;;;;3.40;91.23;102937.47;20776115;28;19933;-57
2023/03/02 01:15:10;;;;;;;;;;;;;;;3.28;91.81;102917.44;20757891;28;19929;-58
2023/03/02 01:25:31;;;;;;;;;;;;;;;3.31;91.30;102911.59;20787120;28;19926;-58
2023/03/02 01:35:53;;;;;;;;;;;;;;;3.23;91.21;102913.00;20782448;28;19929;-57
2023/03/02 01:46:22;;;;;;;;;;;;;;;3.21;91.56;102912.06;20764142;28;19991;-57
2023/03/02 01:56:44;;;;;;;;;;;;;;;3.15;91.98;102894.00;20762971;28;19928;-57
2023/03/02 02:07:07;;;;;;;;;;;;;;;3.15;92.50;102894.00;20768106;28;19925;-57
2023/03/02 02:17:28;;;;;;;;;;;;;;;3.14;92.94;102892.25;20761912;28;19999;-58
2023/03/02 02:27:50;;;;;;;;;;;;;;;3.16;93.14;102885.50;20778171;28;19925;-57
2023/03/02 02:38:12;;;;;;;;;;;;;;;3.19;92.76;102875.38;20765782;28;19933;-57
2023/03/02 02:48:34;;;;;;;;;;;;;;;3.10;92.32;102883.59;20795724;28;19938;-57
2023/03/02 02:58:59;;;;;;;;;;;;;;;2.96;92.38;102897.63;20790296;28;19929;-59
2023/03/02 03:09:21;;;;;;;;;;;;;;;2.74;91.24;102885.78;20776837;28;19929;-58
2023/03/02 03:19:44;;;;;;;;;;;;;;;2.65;91.98;102885.47;20785974;28;20020;-57
2023/03/02 03:30:06;;;;;;;;;;;;;;;2.58;91.82;102870.72;20794367;28;20336;-57
2023/03/02 03:40:27;;;;;;;;;;;;;;;2.51;91.38;102870.47;20770804;28;19983;-57
2023/03/02 03:50:49;;;;;;;;;;;;;;;2.43;92.13;102869.31;20778604;28;19929;-57
2023/03/02 04:01:10;;;;;;;;;;;;;;;2.37;92.24;102872.50;20782960;28;19925;-58
2023/03/02 04:11:33;;;;;;;;;;;;;;;2.40;92.26;102877.72;20782896;28;20077;-58
2023/03/02 04:21:54;;;;;;;;;;;;;;;2.33;92.61;102870.66;20772683;28;20256;-58
2023/03/02 04:32:16;;;;;;;;;;;;;;;2.19;91.35;102878.63;20776595;28;20001;-59
2023/03/02 04:42:37;;;;;;;;;;;;;;;2.01;90.74;102897.53;20759373;28;20004;-57
2023/03/02 04:52:59;;;;;;;;;;;;;;;1.97;91.66;102889.72;20786306;28;20427;-57
2023/03/02 05:03:20;;;;;;;;;;;;;;;1.87;91.67;102913.13;20783548;28;20447;-57
2023/03/02 05:13:41;;;;;;;;;;;;;;;1.76;91.12;102901.63;20769459;28;20599;-59
2023/03/02 05:24:03;;;;;;;;;;;;;;;1.69;92.37;102902.22;20778746;28;20304;-58
2023/03/02 05:34:24;;;;;;;;;;;;;;;1.72;91.03;102908.31;20788418;28;19929;-57
2023/03/02 05:44:46;;;;;;;;;;;;;;;1.61;91.05;102906.16;20800212;28;19929;-56
2023/03/02 05:55:07;;;;;;;;;;;;;;;1.49;90.23;102901.44;20782298;28;19925;-57
2023/03/02 06:05:29;;;;;;;;;;;;;;;1.46;91.40;102908.09;20769626;28;19932;-57
2023/03/02 06:15:50;;;;;;;;;;;;;;;1.48;91.85;102911.59;20763723;28;19939;-58
2023/03/02 06:26:11;;;;;;;;;;;;;;;1.44;91.88;102915.69;20791228;28;20458;-56
2023/03/02 06:36:33;;;;;;;;;;;;;;;1.48;91.43;102917.56;20775441;28;19982;-57
2023/03/02 06:46:55;;;;;;;;;;;;;;;1.42;91.62;102916.41;20771093;28;19933;-58
2023/03/02 06:57:16;;;;;;;;;;;;;;;1.49;92.04;102918.41;20791629;28;19930;-58
2023/03/02 07:07:38;;;;;;;;;;;;;;;1.38;90.87;102912.88;20751232;28;19930;-59
2023/03/02 07:17:59;;;;;;;;;;;;;;;1.37;90.56;102908.59;20783249;28;19930;-59
2023/03/02 07:28:23;;;;;;;;;;;;;;;1.35;91.10;102914.44;20758544;28;19925;-59
2023/03/02 07:38:44;;;;;;;;;;;;;;;1.42;91.78;102911.31;20787024;28;19949;-58
2023/03/02 07:49:05;;;;;;;;;;;;;;;1.54;92.04;102896.53;20780973;28;19941;-56
2023/03/02 07:59:27;;;;;;;;;;;;;;;1.51;90.54;102906.59;20781799;28;19929;-58
2023/03/02 08:09:49;;;;;;;;;;;;;;;1.38;91.80;102899.25;20783455;28;19929;-59
2023/03/02 08:20:11;;;;;;;;;;;;;;;1.43;91.41;102896.09;20766891;28;20364;-57
2023/03/02 08:30:32;;;;;;;;;;;;;;;1.56;91.43;102884.69;20772081;28;20007;-57
2023/03/02 08:40:54;;;;;;;;;;;;;;;1.62;91.25;102882.38;20781901;28;19999;-57
2023/03/02 08:51:16;;;;;;;;;;;;;;;1.64;90.90;102880.75;20787889;28;20609;-57
2023/03/02 09:01:38;;;;;;;;;;;;;;;1.63;90.40;102884.16;20757863;28;20348;-57
2023/03/02 09:12:00;;;;;;;;;;;;;;;1.70;90.79;102868.25;20771009;28;20004;-58
2023/03/02 09:22:21;;;;;;;;;;;;;;;1.91;90.92;102863.97;20772742;28;19937;-57
2023/03/02 09:32:43;;;;;;;;;;;;;;;1.96;91.51;102852.22;20775527;28;19945;-56
2023/03/02 09:43:23;;;;;;;;;;;;;;;2.02;90.18;102858.47;20763550;28;19967;-56
2023/03/02 09:53:44;;;;;;;;;;;;;;;2.01;90.95;102871.16;20782001;28;19929;-57
2023/03/02 10:04:26;;;;;;;;;;;;;;;2.17;90.70;102878.56;20787190;28;19929;-57
2023/03/02 10:14:52;;;;;;;;;;;;;;;2.16;90.85;102876.84;20790243;28;19967;-57
2023/03/02 10:25:19;;;;;;;;;;;;;;;2.41;90.18;102879.47;20789711;28;19972;-56
2023/03/02 10:35:46;;;;;;;;;;;;;;;2.54;88.66;102875.66;20787367;28;19929;-59
2023/03/02 10:46:09;;;;;;;;;;;;;;;2.52;88.81;102878.19;20775651;28;20360;-57
2023/03/02 10:56:31;;;;;;;;;;;;;;;2.55;88.71;102862.94;20783469;28;19956;-56
2023/03/02 11:06:53;;;;;;;;;;;;;;;2.84;89.07;102854.59;20785150;28;19999;-56
2023/03/02 11:17:29;;;;;;;;;;;;;;;3.00;88.72;102851.72;20791424;28;19937;-56
2023/03/02 11:27:55;;;;;;;;;;;;;;;3.14;88.36;102846.22;20766746;28;20396;-57
2023/03/02 11:38:20;;;;;;;;;;;;;;;3.08;87.67;102847.75;20770431;28;19956;-57
2023/03/02 11:48:43;;;;;;;;;;;;;;;3.24;87.93;102843.16;20779357;28;19929;-57
2023/03/02 11:59:10;;;;;;;;;;;;;;;3.41;88.75;102841.97;20785631;28;19971;-57
2023/03/02 12:09:33;;;;;;;;;;;;;;;3.46;87.41;102845.56;20757421;28;19936;-57
2023/03/02 12:20:07;;;;;;;;;;;;;;;3.58;87.90;102815.22;20769969;28;19925;-57
2023/03/02 12:30:30;;;;;;;;;;;;;;;3.76;87.82;102826.00;20764266;28;19929;-57
2023/03/02 12:41:11;;;;;;;;;;;;;;;3.78;87.04;102804.78;20782979;28;19925;-58
2023/03/02 12:51:52;;;;;;;;;;;;;;;3.99;87.42;102799.41;20783329;28;20015;-58
2023/03/02 13:02:14;;;;;;;;;;;;;;;4.09;86.55;102789.47;20781955;28;19956;-56
2023/03/02 13:12:36;;;;;;;;;;;;;;;4.22;86.36;102771.84;20781445;28;19999;-57
2023/03/02 13:22:57;;;;;;;;;;;;;;;4.27;85.47;102763.47;20786317;28;19975;-56
2023/03/02 13:33:21;;;;;;;;;;;;;;;4.45;84.60;102747.72;20777197;28;20273;-57
2023/03/02 13:43:42;;;;;;;;;;;;;;;4.59;85.62;102748.94;20753994;28;20508;-59
2023/03/02 13:54:10;;;;;;;;;;;;;;;4.61;85.22;102732.78;20779732;28;20017;-59
2023/03/02 14:04:31;;;;;;;;;;;;;;;4.73;85.47;102727.94;20772074;28;19979;-57
2023/03/02 14:14:54;;;;;;;;;;;;;;;4.80;85.03;102709.28;20765270;28;19979;-59
2023/03/02 14:25:16;;;;;;;;;;;;;;;4.80;84.72;102686.22;20758147;28;20495;-57
2023/03/02 14:35:38;;;;;;;;;;;;;;;4.88;84.09;102676.13;20776910;28;20288;-59
2023/03/02 14:45:59;;;;;;;;;;;;;;;4.83;83.87;102673.50;20798586;28;19939;-57
2023/03/02 14:56:24;;;;;;;;;;;;;;;4.83;84.38;102668.34;20789684;28;19992;-58
2023/03/02 15:06:46;;;;;;;;;;;;;;;4.84;85.55;102666.63;20781079;28;19986;-58
2023/03/02 15:17:08;;;;;;;;;;;;;;;4.87;84.49;102675.25;20791438;28;19926;-58
2023/03/02 15:27:30;;;;;;;;;;;;;;;4.75;84.28;102669.88;20789319;28;19933;-58
2023/03/02 15:37:52;;;;;;;;;;;;;;;4.82;86.16;102674.31;20770679;28;20389;-58
2023/03/02 15:48:13;;;;;;;;;;;;;;;4.78;85.88;102664.81;20771889;28;19976;-58
2023/03/02 15:58:35;;;;;;;;;;;;;;;4.77;85.50;102673.34;20784939;28;19991;-57
2023/03/02 16:08:56;;;;;;;;;;;;;;;4.63;85.37;102664.44;20791017;28;19963;-58
2023/03/02 16:19:18;;;;;;;;;;;;;;;4.61;86.63;102670.38;20778529;28;19952;-59
2023/03/02 16:29:39;;;;;;;;;;;;;;;4.58;86.23;102660.91;20774075;28;19933;-59
2023/03/02 16:40:01;;;;;;;;;;;;;;;4.54;86.47;102659.09;20756012;28;20519;-59
2023/03/02 16:50:22;;;;;;;;;;;;;;;4.40;86.44;102670.72;20792725;28;20285;-57
2023/03/02 17:00:43;;;;;;;;;;;;;;;4.34;86.59;102680.81;20784866;28;19987;-58
2023/03/02 17:11:05;;;;;;;;;;;;;;;4.20;86.12;102697.53;20791777;28;19929;-58
2023/03/02 17:21:26;;;;;;;;;;;;;;;4.15;86.76;102703.34;20770825;28;19929;-59
2023/03/02 17:31:48;;;;;;;;;;;;;;;4.03;86.51;102720.13;20766044;28;19933;-58
2023/03/02 17:42:09;;;;;;;;;;;;;;;4.04;87.43;102731.25;20775524;28;19967;-59
2023/03/02 17:52:31;;;;;;;;;;;;;;;4.08;87.30;102717.72;20781469;28;20342;-59
2023/03/02 18:02:52;;;;;;;;;;;;;;;4.02;87.22;102717.53;20784531;28;19929;-58
2023/03/02 18:13:14;;;;;;;;;;;;;;;3.83;87.20;102740.88;20770752;28;19979;-60
2023/03/02 18:23:35;;;;;;;;;;;;;;;3.84;87.37;102729.84;20783562;28;19932;-59
2023/03/02 18:33:57;;;;;;;;;;;;;;;3.89;88.39;102733.38;20773401;28;19975;-58
2023/03/02 18:44:19;;;;;;;;;;;;;;;3.94;87.45;102734.38;20779868;28;20258;-57
2023/03/02 18:54:45;;;;;;;;;;;;;;;4.01;86.96;102741.41;20786157;28;19930;-58
2023/03/02 19:05:06;;;;;;;;;;;;;;;4.04;87.29;102741.50;20802773;28;19945;-58
2023/03/02 19:15:30;;;;;;;;;;;;;;;3.97;87.52;102739.59;20785712;28;19933;-58
2023/03/02 19:25:52;;;;;;;;;;;;;;;3.98;87.27;102737.06;20779239;28;19971;-58
2023/03/02 19:36:13;;;;;;;;;;;;;;;3.99;86.89;102735.38;20800853;28;19929;-58
2023/03/02 19:46:34;;;;;;;;;;;;;;;3.96;86.76;102748.09;20770230;28;19991;-58
2023/03/02 19:56:56;;;;;;;;;;;;;;;3.96;86.56;102755.75;20788205;28;19988;-59
2023/03/02 20:07:18;;;;;;;;;;;;;;;3.97;86.29;102750.69;20773481;28;19933;-60
2023/03/02 20:17:39;;;;;;;;;;;;;;;3.95;86.27;102741.25;20783911;28;19997;-58
2023/03/02 20:28:04;;;;;;;;;;;;;;;3.93;87.23;102758.25;20792266;28;19976;-58
2023/03/02 20:38:29;;;;;;;;;;;;;;;3.92;86.68;102766.75;20771378;28;19935;-58
2023/03/02 20:48:50;;;;;;;;;;;;;;;3.87;87.43;102760.63;20776696;28;19925;-58
2023/03/02 20:59:13;;;;;;;;;;;;;;;3.89;87.55;102756.41;20777461;28;20423;-58
2023/03/02 21:09:35;;;;;;;;;;;;;;;3.92;88.07;102751.38;20770052;28;19937;-58
2023/03/02 21:19:57;;;;;;;;;;;;;;;3.93;87.96;102760.81;20781351;28;19951;-57
2023/03/02 21:30:26;;;;;;;;;;;;;;;3.96;88.25;102753.22;20780998;28;19929;-59
2023/03/02 21:40:48;;;;;;;;;;;;;;;3.97;88.23;102754.97;20766234;28;19956;-58
2023/03/02 21:51:10;;;;;;;;;;;;;;;3.94;88.13;102736.94;20773326;28;19933;-58
2023/03/02 22:01:31;;;;;;;;;;;;;;;3.94;88.11;102747.16;20773717;28;19930;-58
2023/03/02 22:11:53;;;;;;;;;;;;;;;3.97;88.26;102752.41;20769439;28;20012;-58
2023/03/02 22:22:17;;;;;;;;;;;;;;;3.94;88.81;102744.59;20789109;28;19929;-58
2023/03/02 22:32:38;;;;;;;;;;;;;;;3.93;88.92;102748.00;20746907;28;19984;-58
2023/03/02 22:43:19;;;;;;;;;;;;;;;3.90;88.96;102745.38;20758084;28;19933;-58
2023/03/02 22:53:47;;;;;;;;;;;;;;;3.93;88.92;102737.78;20789841;28;19975;-59
2023/03/02 23:04:10;;;;;;;;;;;;;;;3.87;89.20;102733.34;20778506;28;20294;-58
2023/03/02 23:14:40;;;;;;;;;;;;;;;3.88;88.97;102729.94;20778325;28;19941;-58
2023/03/02 23:25:02;;;;;;;;;;;;;;;3.90;89.52;102724.91;20777901;28;19925;-58
2023/03/02 23:35:23;;;;;;;;;;;;;;;3.83;89.69;102733.19;20782353;28;19929;-59
2023/03/02 23:45:46;;;;;;;;;;;;;;;3.81;89.82;102732.28;20779074;28;19940;-59
2023/03/02 23:56:07;;;;;;;;;;;;;;;3.79;89.71;102733.97;20781727;28;19925;-58
